sensor_id;sensor_type;location;lat;lon;timestamp;pressure;altitude;pressure_sealevel;temperature;humidity
77153;BME280;66124;51.146;17.072;2023-07-16T00:02:22;99574.11;;;23.71;53.53
77153;BME280;66124;51.146;17.072;2023-07-16T00:04:52;99576.67;;;23.66;53.72
77153;BME280;66124;51.146;17.072;2023-07-16T00:07:21;99574.86;;;23.62;53.78
77153;BME280;66124;51.146;17.072;2023-07-16T00:09:50;99574.84;;;23.59;54.08
77153;BME280;66124;51.146;17.072;2023-07-16T00:12:20;99577.96;;;23.58;54.25
77153;BME280;66124;51.146;17.072;2023-07-16T00:14:49;99577.61;;;23.55;54.41
77153;BME280;66124;51.146;17.072;2023-07-16T00:17:19;99574.23;;;23.52;54.47
77153;BME280;66124;51.146;17.072;2023-07-16T00:19:48;99580.88;;;23.50;54.64
77153;BME280;66124;51.146;17.072;2023-07-16T00:22:17;99572.77;;;23.48;54.75
77153;BME280;66124;51.146;17.072;2023-07-16T00:24:47;99572.27;;;23.46;54.95
77153;BME280;66124;51.146;17.072;2023-07-16T00:27:16;99572.74;;;23.43;55.15
77153;BME280;66124;51.146;17.072;2023-07-16T00:29:45;99574.55;;;23.38;55.37
77153;BME280;66124;51.146;17.072;2023-07-16T00:32:13;99566.15;;;23.31;55.52
77153;BME280;66124;51.146;17.072;2023-07-16T00:40:41;99568.67;;;23.25;55.96
77153;BME280;66124;51.146;17.072;2023-07-16T00:43:10;99571.33;;;23.21;56.10
77153;BME280;66124;51.146;17.072;2023-07-16T00:45:40;99570.49;;;23.18;56.26
77153;BME280;66124;51.146;17.072;2023-07-16T00:48:10;99570.08;;;23.13;56.40
77153;BME280;66124;51.146;17.072;2023-07-16T00:50:41;99563.92;;;23.09;56.56
77153;BME280;66124;51.146;17.072;2023-07-16T00:53:11;99567.23;;;23.05;56.61
77153;BME280;66124;51.146;17.072;2023-07-16T00:55:41;99562.24;;;23.00;56.85
77153;BME280;66124;51.146;17.072;2023-07-16T00:58:11;99562.95;;;22.96;56.96
77153;BME280;66124;51.146;17.072;2023-07-16T01:00:41;99562.59;;;22.93;57.13
77153;BME280;66124;51.146;17.072;2023-07-16T01:03:12;99561.75;;;22.90;57.34
77153;BME280;66124;51.146;17.072;2023-07-16T01:05:47;99558.16;;;22.84;57.63
77153;BME280;66124;51.146;17.072;2023-07-16T01:08:24;99562.80;;;22.83;57.72
77153;BME280;66124;51.146;17.072;2023-07-16T01:10:56;99565.50;;;22.81;57.93
77153;BME280;66124;51.146;17.072;2023-07-16T01:13:27;99563.30;;;22.79;57.96
77153;BME280;66124;51.146;17.072;2023-07-16T01:15:57;99559.97;;;22.78;58.16
77153;BME280;66124;51.146;17.072;2023-07-16T01:18:27;99552.23;;;22.76;58.26
77153;BME280;66124;51.146;17.072;2023-07-16T01:20:56;99546.44;;;22.74;58.36
77153;BME280;66124;51.146;17.072;2023-07-16T01:23:39;99542.86;;;22.71;58.46
77153;BME280;66124;51.146;17.072;2023-07-16T01:26:28;99547.86;;;22.66;58.78
77153;BME280;66124;51.146;17.072;2023-07-16T01:29:25;99549.96;;;22.61;58.87
77153;BME280;66124;51.146;17.072;2023-07-16T01:31:58;99550.27;;;22.58;58.96
77153;BME280;66124;51.146;17.072;2023-07-16T01:34:32;99549.11;;;22.56;59.19
77153;BME280;66124;51.146;17.072;2023-07-16T01:37:03;99544.05;;;22.54;59.28
77153;BME280;66124;51.146;17.072;2023-07-16T01:39:33;99540.94;;;22.51;59.40
77153;BME280;66124;51.146;17.072;2023-07-16T01:42:03;99543.74;;;22.49;59.49
77153;BME280;66124;51.146;17.072;2023-07-16T01:44:33;99541.77;;;22.46;59.63
77153;BME280;66124;51.146;17.072;2023-07-16T01:47:10;99545.44;;;22.44;59.77
77153;BME280;66124;51.146;17.072;2023-07-16T01:49:40;99541.25;;;22.41;59.98
77153;BME280;66124;51.146;17.072;2023-07-16T01:52:09;99538.08;;;22.39;60.13
77153;BME280;66124;51.146;17.072;2023-07-16T02:00:06;99525.89;;;22.37;60.57
77153;BME280;66124;51.146;17.072;2023-07-16T02:02:36;99529.87;;;22.34;60.70
77153;BME280;66124;51.146;17.072;2023-07-16T02:05:07;99535.35;;;22.33;60.81
77153;BME280;66124;51.146;17.072;2023-07-16T02:07:36;99536.59;;;22.33;60.85
77153;BME280;66124;51.146;17.072;2023-07-16T02:10:07;99541.27;;;22.33;60.91
77153;BME280;66124;51.146;17.072;2023-07-16T02:12:36;99534.92;;;22.32;60.96
77153;BME280;66124;51.146;17.072;2023-07-16T02:15:07;99533.16;;;22.30;61.17
77153;BME280;66124;51.146;17.072;2023-07-16T02:17:37;99534.23;;;22.28;61.34
77153;BME280;66124;51.146;17.072;2023-07-16T02:20:09;99543.33;;;22.25;61.35
77153;BME280;66124;51.146;17.072;2023-07-16T02:22:38;99537.59;;;22.23;61.47
77153;BME280;66124;51.146;17.072;2023-07-16T02:25:09;99539.48;;;22.21;61.46
77153;BME280;66124;51.146;17.072;2023-07-16T02:27:38;99544.42;;;22.19;61.48
77153;BME280;66124;51.146;17.072;2023-07-16T02:30:09;99555.14;;;22.17;61.57
77153;BME280;66124;51.146;17.072;2023-07-16T02:32:38;99567.73;;;22.16;61.68
77153;BME280;66124;51.146;17.072;2023-07-16T02:35:09;99576.43;;;22.16;61.64
77153;BME280;66124;51.146;17.072;2023-07-16T02:37:38;99589.38;;;22.15;61.76
77153;BME280;66124;51.146;17.072;2023-07-16T02:40:10;99595.56;;;22.14;61.98
77153;BME280;66124;51.146;17.072;2023-07-16T02:42:39;99594.00;;;22.11;61.91
77153;BME280;66124;51.146;17.072;2023-07-16T02:45:10;99579.55;;;22.10;61.94
77153;BME280;66124;51.146;17.072;2023-07-16T02:47:39;99565.70;;;22.08;62.05
77153;BME280;66124;51.146;17.072;2023-07-16T02:50:11;99566.77;;;22.07;62.24
77153;BME280;66124;51.146;17.072;2023-07-16T02:52:40;99568.28;;;22.04;62.17
77153;BME280;66124;51.146;17.072;2023-07-16T02:55:10;99574.06;;;22.02;62.43
77153;BME280;66124;51.146;17.072;2023-07-16T02:57:39;99579.77;;;22.02;62.49
77153;BME280;66124;51.146;17.072;2023-07-16T03:00:10;99580.10;;;22.02;62.47
77153;BME280;66124;51.146;17.072;2023-07-16T03:02:40;99577.23;;;22.02;62.56
77153;BME280;66124;51.146;17.072;2023-07-16T03:05:10;99580.52;;;22.02;62.80
77153;BME280;66124;51.146;17.072;2023-07-16T03:07:39;99588.46;;;22.00;62.92
77153;BME280;66124;51.146;17.072;2023-07-16T03:10:10;99594.16;;;21.99;63.10
77153;BME280;66124;51.146;17.072;2023-07-16T03:12:38;99595.12;;;22.00;63.03
77153;BME280;66124;51.146;17.072;2023-07-16T03:20:02;99603.30;;;22.04;63.14
77153;BME280;66124;51.146;17.072;2023-07-16T03:22:32;99602.86;;;22.06;63.29
77153;BME280;66124;51.146;17.072;2023-07-16T03:25:01;99602.05;;;22.09;63.33
77153;BME280;66124;51.146;17.072;2023-07-16T03:27:31;99599.52;;;22.13;63.15
77153;BME280;66124;51.146;17.072;2023-07-16T03:30:01;99620.15;;;22.18;63.02
77153;BME280;66124;51.146;17.072;2023-07-16T03:32:30;99627.08;;;22.22;63.09
77153;BME280;66124;51.146;17.072;2023-07-16T03:34:59;99648.35;;;22.28;62.89
77153;BME280;66124;51.146;17.072;2023-07-16T03:37:29;99690.00;;;22.33;63.02
77153;BME280;66124;51.146;17.072;2023-07-16T03:40:13;99754.26;;;22.39;63.27
77153;BME280;66124;51.146;17.072;2023-07-16T03:42:43;99786.02;;;22.41;63.54
77153;BME280;66124;51.146;17.072;2023-07-16T03:45:13;99794.63;;;22.42;63.82
77153;BME280;66124;51.146;17.072;2023-07-16T03:47:42;99751.38;;;22.43;63.71
77153;BME280;66124;51.146;17.072;2023-07-16T03:50:12;99744.38;;;22.48;63.59
77153;BME280;66124;51.146;17.072;2023-07-16T03:52:43;99754.27;;;22.57;63.55
77153;BME280;66124;51.146;17.072;2023-07-16T03:55:12;99765.20;;;22.67;63.47
77153;BME280;66124;51.146;17.072;2023-07-16T03:57:42;99745.69;;;22.77;63.34
77153;BME280;66124;51.146;17.072;2023-07-16T04:00:12;99765.32;;;22.87;63.16
77153;BME280;66124;51.146;17.072;2023-07-16T04:02:42;99778.20;;;22.99;63.24
77153;BME280;66124;51.146;17.072;2023-07-16T04:05:11;99785.45;;;23.07;63.31
77153;BME280;66124;51.146;17.072;2023-07-16T04:07:41;99791.62;;;23.20;63.46
77153;BME280;66124;51.146;17.072;2023-07-16T04:10:10;99793.27;;;23.33;63.34
77153;BME280;66124;51.146;17.072;2023-07-16T04:12:40;99795.66;;;23.48;63.10
77153;BME280;66124;51.146;17.072;2023-07-16T04:15:11;99801.91;;;23.64;62.72
77153;BME280;66124;51.146;17.072;2023-07-16T04:17:41;99797.38;;;23.80;62.37
77153;BME280;66124;51.146;17.072;2023-07-16T04:20:11;99802.27;;;23.94;62.03
77153;BME280;66124;51.146;17.072;2023-07-16T04:22:40;99808.98;;;24.06;61.55
77153;BME280;66124;51.146;17.072;2023-07-16T04:25:10;99811.63;;;24.15;61.12
77153;BME280;66124;51.146;17.072;2023-07-16T04:27:40;99818.16;;;24.23;60.69
77153;BME280;66124;51.146;17.072;2023-07-16T04:30:11;99826.47;;;24.29;60.35
77153;BME280;66124;51.146;17.072;2023-07-16T04:32:39;99836.42;;;24.34;59.79
77153;BME280;66124;51.146;17.072;2023-07-16T04:40:33;99852.71;;;24.50;58.79
77153;BME280;66124;51.146;17.072;2023-07-16T04:43:03;99860.09;;;24.53;58.37
77153;BME280;66124;51.146;17.072;2023-07-16T04:45:32;99858.48;;;24.57;58.18
77153;BME280;66124;51.146;17.072;2023-07-16T04:48:01;99854.09;;;24.61;57.99
77153;BME280;66124;51.146;17.072;2023-07-16T04:50:31;99864.02;;;24.68;57.82
77153;BME280;66124;51.146;17.072;2023-07-16T04:53:02;99867.50;;;24.75;57.63
77153;BME280;66124;51.146;17.072;2023-07-16T04:55:36;99863.27;;;24.80;57.35
77153;BME280;66124;51.146;17.072;2023-07-16T04:58:06;99870.14;;;24.84;57.16
77153;BME280;66124;51.146;17.072;2023-07-16T05:00:35;99884.64;;;24.86;56.99
77153;BME280;66124;51.146;17.072;2023-07-16T05:03:05;99888.77;;;24.89;56.89
77153;BME280;66124;51.146;17.072;2023-07-16T05:05:35;99895.31;;;24.93;56.73
77153;BME280;66124;51.146;17.072;2023-07-16T05:08:05;99899.23;;;24.99;56.72
77153;BME280;66124;51.146;17.072;2023-07-16T05:10:34;99898.52;;;25.06;56.54
77153;BME280;66124;51.146;17.072;2023-07-16T05:13:03;99905.27;;;25.12;56.54
77153;BME280;66124;51.146;17.072;2023-07-16T05:15:33;99906.66;;;25.21;56.43
77153;BME280;66124;51.146;17.072;2023-07-16T05:18:03;99907.80;;;25.32;56.28
77153;BME280;66124;51.146;17.072;2023-07-16T05:20:32;99908.46;;;25.44;56.02
77153;BME280;66124;51.146;17.072;2023-07-16T05:23:02;99915.83;;;25.53;55.79
77153;BME280;66124;51.146;17.072;2023-07-16T05:25:31;99915.16;;;25.61;55.39
77153;BME280;66124;51.146;17.072;2023-07-16T05:28:01;99913.93;;;25.67;54.98
77153;BME280;66124;51.146;17.072;2023-07-16T05:30:30;99918.04;;;25.72;54.89
77153;BME280;66124;51.146;17.072;2023-07-16T05:32:59;99916.58;;;25.76;54.53
77153;BME280;66124;51.146;17.072;2023-07-16T05:35:29;99907.66;;;25.71;54.33
77153;BME280;66124;51.146;17.072;2023-07-16T05:37:58;99925.08;;;25.85;54.05
77153;BME280;66124;51.146;17.072;2023-07-16T05:40:27;99925.48;;;25.93;53.84
77153;BME280;66124;51.146;17.072;2023-07-16T05:42:57;99925.99;;;26.05;53.88
77153;BME280;66124;51.146;17.072;2023-07-16T05:45:26;99925.09;;;26.19;53.73
77153;BME280;66124;51.146;17.072;2023-07-16T05:47:56;99927.44;;;26.35;53.48
77153;BME280;66124;51.146;17.072;2023-07-16T05:50:23;99928.27;;;26.49;53.12
77153;BME280;66124;51.146;17.072;2023-07-16T05:52:51;99926.96;;;26.58;52.69
77153;BME280;66124;51.146;17.072;2023-07-16T06:03:12;99936.28;;;26.69;51.57
77153;BME280;66124;51.146;17.072;2023-07-16T06:05:43;99932.02;;;26.68;51.24
77153;BME280;66124;51.146;17.072;2023-07-16T06:08:13;99936.77;;;26.69;51.01
77153;BME280;66124;51.146;17.072;2023-07-16T06:10:42;99951.62;;;26.67;51.17
77153;BME280;66124;51.146;17.072;2023-07-16T06:13:11;99950.77;;;26.66;50.98
77153;BME280;66124;51.146;17.072;2023-07-16T06:15:41;99955.14;;;26.62;50.83
77153;BME280;66124;51.146;17.072;2023-07-16T06:18:11;99966.89;;;26.58;50.76
77153;BME280;66124;51.146;17.072;2023-07-16T06:20:44;99969.73;;;26.55;50.76
77153;BME280;66124;51.146;17.072;2023-07-16T06:23:14;99983.42;;;26.51;50.67
77153;BME280;66124;51.146;17.072;2023-07-16T06:25:43;99991.45;;;26.50;50.58
77153;BME280;66124;51.146;17.072;2023-07-16T06:28:13;99998.33;;;26.50;50.44
77153;BME280;66124;51.146;17.072;2023-07-16T06:30:43;99982.89;;;26.37;50.74
77153;BME280;66124;51.146;17.072;2023-07-16T06:33:12;100001.80;;;26.47;50.77
77153;BME280;66124;51.146;17.072;2023-07-16T06:35:45;100006.44;;;26.45;50.77
77153;BME280;66124;51.146;17.072;2023-07-16T06:38:14;100008.72;;;26.41;50.74
77153;BME280;66124;51.146;17.072;2023-07-16T06:40:49;100014.84;;;26.35;50.88
77153;BME280;66124;51.146;17.072;2023-07-16T06:43:18;100017.91;;;26.30;50.95
77153;BME280;66124;51.146;17.072;2023-07-16T06:45:50;100016.55;;;26.27;51.11
77153;BME280;66124;51.146;17.072;2023-07-16T06:48:19;100024.99;;;26.31;51.18
77153;BME280;66124;51.146;17.072;2023-07-16T06:50:50;100023.61;;;26.37;51.06
77153;BME280;66124;51.146;17.072;2023-07-16T06:53:20;100035.67;;;26.42;50.64
77153;BME280;66124;51.146;17.072;2023-07-16T06:55:50;100035.50;;;26.43;50.55
77153;BME280;66124;51.146;17.072;2023-07-16T06:58:19;100041.50;;;26.45;50.58
77153;BME280;66124;51.146;17.072;2023-07-16T07:00:49;100038.14;;;26.45;50.69
77153;BME280;66124;51.146;17.072;2023-07-16T07:03:19;100041.50;;;26.44;50.22
77153;BME280;66124;51.146;17.072;2023-07-16T07:05:48;100046.48;;;26.43;50.08
77153;BME280;66124;51.146;17.072;2023-07-16T07:08:17;100052.01;;;26.38;50.17
77153;BME280;66124;51.146;17.072;2023-07-16T07:10:48;100034.65;;;26.23;50.21
77153;BME280;66124;51.146;17.072;2023-07-16T07:13:17;100050.16;;;26.33;50.37
77153;BME280;66124;51.146;17.072;2023-07-16T07:15:45;100053.23;;;26.33;50.47
77153;BME280;66124;51.146;17.072;2023-07-16T07:20:15;100060.48;;;26.39;50.60
77153;BME280;66124;51.146;17.072;2023-07-16T07:22:44;100055.95;;;26.40;50.63
77153;BME280;66124;51.146;17.072;2023-07-16T07:25:14;100057.02;;;26.43;50.62
77153;BME280;66124;51.146;17.072;2023-07-16T07:27:43;100056.22;;;26.49;50.54
77153;BME280;66124;51.146;17.072;2023-07-16T07:30:13;100052.27;;;26.52;50.31
77153;BME280;66124;51.146;17.072;2023-07-16T07:32:42;100051.02;;;26.52;50.32
77153;BME280;66124;51.146;17.072;2023-07-16T07:35:12;100045.27;;;26.60;50.18
77153;BME280;66124;51.146;17.072;2023-07-16T07:37:41;100040.27;;;26.69;50.35
77153;BME280;66124;51.146;17.072;2023-07-16T07:40:12;100040.73;;;26.78;50.16
77153;BME280;66124;51.146;17.072;2023-07-16T07:42:41;100031.30;;;26.88;50.16
77153;BME280;66124;51.146;17.072;2023-07-16T07:45:11;100026.11;;;26.98;50.15
77153;BME280;66124;51.146;17.072;2023-07-16T07:47:41;100031.02;;;27.08;50.00
77153;BME280;66124;51.146;17.072;2023-07-16T07:50:11;100036.63;;;27.17;49.69
77153;BME280;66124;51.146;17.072;2023-07-16T07:52:41;100039.33;;;27.17;49.37
77153;BME280;66124;51.146;17.072;2023-07-16T07:55:11;100032.29;;;27.14;49.01
77153;BME280;66124;51.146;17.072;2023-07-16T07:57:40;100032.52;;;27.10;49.11
77153;BME280;66124;51.146;17.072;2023-07-16T08:00:12;100031.27;;;27.10;49.13
77153;BME280;66124;51.146;17.072;2023-07-16T08:02:41;100032.31;;;27.16;48.95
77153;BME280;66124;51.146;17.072;2023-07-16T08:05:11;100030.09;;;27.31;49.05
77153;BME280;66124;51.146;17.072;2023-07-16T08:07:41;100018.15;;;27.51;49.13
77153;BME280;66124;51.146;17.072;2023-07-16T08:10:11;100015.43;;;27.71;48.89
77153;BME280;66124;51.146;17.072;2023-07-16T08:12:40;100013.15;;;27.87;48.46
77153;BME280;66124;51.146;17.072;2023-07-16T08:15:10;100012.90;;;28.00;48.25
77153;BME280;66124;51.146;17.072;2023-07-16T08:17:40;100007.48;;;28.05;47.30
77153;BME280;66124;51.146;17.072;2023-07-16T08:20:11;100003.95;;;28.03;47.17
77153;BME280;66124;51.146;17.072;2023-07-16T08:22:41;100001.90;;;27.98;46.84
77153;BME280;66124;51.146;17.072;2023-07-16T08:25:10;100007.48;;;28.00;46.79
77153;BME280;66124;51.146;17.072;2023-07-16T08:27:40;100010.11;;;28.04;46.72
77153;BME280;66124;51.146;17.072;2023-07-16T08:30:10;100008.33;;;28.03;46.62
77153;BME280;66124;51.146;17.072;2023-07-16T08:32:38;100006.63;;;28.01;46.68
77153;BME280;66124;51.146;17.072;2023-07-16T08:41:15;99996.10;;;28.43;46.60
77153;BME280;66124;51.146;17.072;2023-07-16T08:43:42;99993.78;;;28.68;46.14
77153;BME280;66124;51.146;17.072;2023-07-16T08:46:12;99980.14;;;28.81;45.57
77153;BME280;66124;51.146;17.072;2023-07-16T08:48:39;99993.04;;;29.01;45.29
77153;BME280;66124;51.146;17.072;2023-07-16T08:51:07;99992.27;;;29.11;45.22
77153;BME280;66124;51.146;17.072;2023-07-16T08:53:37;99984.96;;;29.19;45.10
77153;BME280;66124;51.146;17.072;2023-07-16T08:56:05;99975.36;;;29.27;44.77
77153;BME280;66124;51.146;17.072;2023-07-16T08:58:32;99975.38;;;29.34;44.62
77153;BME280;66124;51.146;17.072;2023-07-16T09:05:21;99969.04;;;29.44;43.98
77153;BME280;66124;51.146;17.072;2023-07-16T09:07:51;99971.23;;;29.40;43.75
77153;BME280;66124;51.146;17.072;2023-07-16T09:10:20;99963.91;;;29.35;43.67
77153;BME280;66124;51.146;17.072;2023-07-16T09:12:50;99977.80;;;29.29;43.53
77153;BME280;66124;51.146;17.072;2023-07-16T09:15:19;99993.83;;;29.22;43.81
77153;BME280;66124;51.146;17.072;2023-07-16T09:17:50;99998.52;;;29.12;43.95
77153;BME280;66124;51.146;17.072;2023-07-16T09:20:20;100000.17;;;28.95;44.42
77153;BME280;66124;51.146;17.072;2023-07-16T09:22:49;99986.14;;;28.84;44.95
77153;BME280;66124;51.146;17.072;2023-07-16T09:25:19;99982.23;;;28.79;45.41
77153;BME280;66124;51.146;17.072;2023-07-16T09:27:50;99978.89;;;28.83;45.67
77153;BME280;66124;51.146;17.072;2023-07-16T09:30:20;99979.52;;;28.92;45.83
77153;BME280;66124;51.146;17.072;2023-07-16T09:32:50;99979.54;;;29.02;45.77
77153;BME280;66124;51.146;17.072;2023-07-16T09:35:19;99982.77;;;29.13;45.81
77153;BME280;66124;51.146;17.072;2023-07-16T09:37:49;99989.12;;;29.26;45.94
77153;BME280;66124;51.146;17.072;2023-07-16T09:40:19;99991.02;;;29.37;45.87
77153;BME280;66124;51.146;17.072;2023-07-16T09:42:49;99991.73;;;29.47;45.14
77153;BME280;66124;51.146;17.072;2023-07-16T09:45:20;99988.98;;;29.62;44.88
77153;BME280;66124;51.146;17.072;2023-07-16T09:47:49;99990.42;;;29.79;44.90
77153;BME280;66124;51.146;17.072;2023-07-16T09:50:20;100000.80;;;29.98;44.14
77153;BME280;66124;51.146;17.072;2023-07-16T09:52:52;100011.46;;;30.14;43.74
77153;BME280;66124;51.146;17.072;2023-07-16T09:55:23;100018.38;;;30.21;43.34
77153;BME280;66124;51.146;17.072;2023-07-16T09:57:55;100021.06;;;30.33;43.01
77153;BME280;66124;51.146;17.072;2023-07-16T10:00:26;100010.44;;;30.30;42.88
77153;BME280;66124;51.146;17.072;2023-07-16T10:02:56;100027.47;;;30.46;42.92
77153;BME280;66124;51.146;17.072;2023-07-16T10:05:28;100040.66;;;30.46;42.61
77153;BME280;66124;51.146;17.072;2023-07-16T10:07:56;100051.42;;;30.42;42.50
77153;BME280;66124;51.146;17.072;2023-07-16T10:10:39;100048.84;;;30.35;43.58
77153;BME280;66124;51.146;17.072;2023-07-16T10:13:11;100056.30;;;30.41;43.98
77153;BME280;66124;51.146;17.072;2023-07-16T10:15:50;100061.40;;;30.39;43.75
77153;BME280;66124;51.146;17.072;2023-07-16T10:18:24;100066.75;;;30.34;44.11
77153;BME280;66124;51.146;17.072;2023-07-16T10:21:24;100063.80;;;30.26;44.27
77153;BME280;66124;51.146;17.072;2023-07-16T10:23:59;100062.23;;;29.99;44.51
77153;BME280;66124;51.146;17.072;2023-07-16T10:26:29;100066.35;;;29.69;45.16
77153;BME280;66124;51.146;17.072;2023-07-16T10:28:59;100071.26;;;29.45;45.81
77153;BME280;66124;51.146;17.072;2023-07-16T10:31:28;100080.96;;;29.22;46.46
77153;BME280;66124;51.146;17.072;2023-07-16T10:34:04;100082.09;;;28.92;46.93
77153;BME280;66124;51.146;17.072;2023-07-16T10:36:39;100085.70;;;28.55;47.81
77153;BME280;66124;51.146;17.072;2023-07-16T10:39:09;100089.31;;;28.20;48.60
77153;BME280;66124;51.146;17.072;2023-07-16T10:41:38;100095.98;;;27.84;49.41
77153;BME280;66124;51.146;17.072;2023-07-16T10:44:09;100099.25;;;27.44;50.06
77153;BME280;66124;51.146;17.072;2023-07-16T10:46:41;100106.27;;;27.09;50.58
77153;BME280;66124;51.146;17.072;2023-07-16T10:49:10;100112.05;;;26.84;51.27
77153;BME280;66124;51.146;17.072;2023-07-16T10:51:40;100120.72;;;26.66;51.96
77153;BME280;66124;51.146;17.072;2023-07-16T10:54:09;100119.03;;;26.47;52.44
77153;BME280;66124;51.146;17.072;2023-07-16T10:56:39;100118.05;;;26.32;52.81
77153;BME280;66124;51.146;17.072;2023-07-16T10:59:11;100115.98;;;26.18;53.23
77153;BME280;66124;51.146;17.072;2023-07-16T11:01:40;100110.65;;;26.04;53.61
77153;BME280;66124;51.146;17.072;2023-07-16T11:04:09;100112.06;;;25.90;53.80
77153;BME280;66124;51.146;17.072;2023-07-16T11:06:39;100113.39;;;25.81;54.06
77153;BME280;66124;51.146;17.072;2023-07-16T11:09:10;100114.02;;;25.73;54.22
77153;BME280;66124;51.146;17.072;2023-07-16T11:11:40;100115.23;;;25.64;54.60
77153;BME280;66124;51.146;17.072;2023-07-16T11:14:09;100112.39;;;25.53;54.79
77153;BME280;66124;51.146;17.072;2023-07-16T11:16:39;100116.86;;;25.46;54.99
77153;BME280;66124;51.146;17.072;2023-07-16T11:19:09;100119.02;;;25.41;55.21
77153;BME280;66124;51.146;17.072;2023-07-16T11:21:38;100115.15;;;25.37;55.51
77153;BME280;66124;51.146;17.072;2023-07-16T11:24:12;100113.38;;;25.37;55.66
77153;BME280;66124;51.146;17.072;2023-07-16T11:26:41;100106.79;;;25.37;55.70
77153;BME280;66124;51.146;17.072;2023-07-16T11:29:18;100107.11;;;25.37;55.85
77153;BME280;66124;51.146;17.072;2023-07-16T11:31:45;100109.90;;;25.40;56.15
77153;BME280;66124;51.146;17.072;2023-07-16T11:34:16;100115.98;;;25.46;56.01
77153;BME280;66124;51.146;17.072;2023-07-16T11:45:18;100123.05;;;25.67;54.74
77153;BME280;66124;51.146;17.072;2023-07-16T11:47:47;100121.90;;;25.69;54.58
77153;BME280;66124;51.146;17.072;2023-07-16T11:50:17;100120.84;;;25.74;54.56
77153;BME280;66124;51.146;17.072;2023-07-16T11:52:55;100121.13;;;25.80;54.40
77153;BME280;66124;51.146;17.072;2023-07-16T11:55:25;100124.67;;;25.88;54.43
77153;BME280;66124;51.146;17.072;2023-07-16T11:57:54;100133.61;;;25.93;53.93
77153;BME280;66124;51.146;17.072;2023-07-16T12:00:24;100126.41;;;25.95;53.39
77153;BME280;66124;51.146;17.072;2023-07-16T12:02:53;100129.23;;;25.92;52.87
77153;BME280;66124;51.146;17.072;2023-07-16T12:05:24;100126.38;;;25.90;52.52
77153;BME280;66124;51.146;17.072;2023-07-16T12:07:53;100125.36;;;25.89;52.30
77153;BME280;66124;51.146;17.072;2023-07-16T12:10:23;100124.02;;;25.91;52.33
77153;BME280;66124;51.146;17.072;2023-07-16T12:12:52;100125.58;;;25.96;52.20
77153;BME280;66124;51.146;17.072;2023-07-16T12:15:21;100126.25;;;26.06;52.18
77153;BME280;66124;51.146;17.072;2023-07-16T12:17:51;100123.61;;;26.16;51.75
77153;BME280;66124;51.146;17.072;2023-07-16T12:20:20;100121.52;;;26.26;51.80
77153;BME280;66124;51.146;17.072;2023-07-16T12:22:50;100120.02;;;26.36;51.75
77153;BME280;66124;51.146;17.072;2023-07-16T12:25:20;100119.40;;;26.42;51.60
77153;BME280;66124;51.146;17.072;2023-07-16T12:27:49;100115.65;;;26.49;51.37
77153;BME280;66124;51.146;17.072;2023-07-16T12:30:19;100113.80;;;26.56;51.26
77153;BME280;66124;51.146;17.072;2023-07-16T12:32:48;100112.88;;;26.65;51.34
77153;BME280;66124;51.146;17.072;2023-07-16T12:35:18;100116.63;;;26.76;51.16
77153;BME280;66124;51.146;17.072;2023-07-16T12:37:47;100122.27;;;26.85;50.93
77153;BME280;66124;51.146;17.072;2023-07-16T12:40:16;100120.77;;;26.92;51.06
77153;BME280;66124;51.146;17.072;2023-07-16T12:42:46;100113.98;;;26.98;50.94
77153;BME280;66124;51.146;17.072;2023-07-16T12:45:15;100112.89;;;27.03;50.91
77153;BME280;66124;51.146;17.072;2023-07-16T12:47:44;100109.44;;;27.08;50.87
77153;BME280;66124;51.146;17.072;2023-07-16T12:50:15;100107.40;;;27.10;50.94
77153;BME280;66124;51.146;17.072;2023-07-16T12:52:45;100106.38;;;27.13;50.91
77153;BME280;66124;51.146;17.072;2023-07-16T12:55:12;100103.84;;;27.16;50.90
77153;BME280;66124;51.146;17.072;2023-07-16T12:57:40;100103.06;;;27.19;50.91
77153;BME280;66124;51.146;17.072;2023-07-16T13:05:03;100105.52;;;27.33;50.86
77153;BME280;66124;51.146;17.072;2023-07-16T13:07:33;100105.87;;;27.34;51.12
77153;BME280;66124;51.146;17.072;2023-07-16T13:10:03;100105.40;;;27.29;50.84
77153;BME280;66124;51.146;17.072;2023-07-16T13:12:32;100109.80;;;27.20;51.15
77153;BME280;66124;51.146;17.072;2023-07-16T13:15:02;100111.91;;;27.12;51.11
77153;BME280;66124;51.146;17.072;2023-07-16T13:17:31;100116.66;;;27.05;51.14
77153;BME280;66124;51.146;17.072;2023-07-16T13:20:00;100122.07;;;26.97;51.31
77153;BME280;66124;51.146;17.072;2023-07-16T13:22:30;100122.33;;;26.90;51.36
77153;BME280;66124;51.146;17.072;2023-07-16T13:24:59;100126.45;;;26.89;51.60
77153;BME280;66124;51.146;17.072;2023-07-16T13:27:28;100129.35;;;26.94;51.51
77153;BME280;66124;51.146;17.072;2023-07-16T13:29:58;100128.73;;;27.05;51.67
77153;BME280;66124;51.146;17.072;2023-07-16T13:32:27;100126.16;;;27.16;51.49
77153;BME280;66124;51.146;17.072;2023-07-16T13:34:56;100133.48;;;27.26;51.42
77153;BME280;66124;51.146;17.072;2023-07-16T13:37:26;100132.31;;;27.30;51.38
77153;BME280;66124;51.146;17.072;2023-07-16T13:39:55;100132.92;;;27.33;51.46
77153;BME280;66124;51.146;17.072;2023-07-16T13:42:24;100129.84;;;27.38;51.34
77153;BME280;66124;51.146;17.072;2023-07-16T13:44:54;100131.48;;;27.46;51.07
77153;BME280;66124;51.146;17.072;2023-07-16T13:47:23;100131.10;;;27.56;51.09
77153;BME280;66124;51.146;17.072;2023-07-16T13:49:53;100126.45;;;27.67;51.04
77153;BME280;66124;51.146;17.072;2023-07-16T13:52:22;100131.86;;;27.74;50.71
77153;BME280;66124;51.146;17.072;2023-07-16T13:54:52;100134.98;;;27.71;50.45
77153;BME280;66124;51.146;17.072;2023-07-16T13:57:21;100139.92;;;27.68;50.59